createdAt,value
2018-09-10T00:00:10.158Z,10.93
2018-09-10T00:02:41.852Z,9.80
2018-09-10T00:05:12.608Z,10.03
2018-09-10T00:07:44.083Z,9.30
2018-09-10T00:10:15.023Z,9.93
2018-09-10T00:12:46.577Z,10.20
2018-09-10T00:15:17.711Z,9.77
2018-09-10T00:17:48.795Z,10.27
2018-09-10T00:20:20.126Z,10.07
2018-09-10T00:22:50.930Z,10.50
2018-09-10T00:25:22.579Z,9.73
2018-09-10T00:27:53.879Z,10.00
2018-09-10T00:30:24.060Z,9.97
2018-09-10T00:32:54.307Z,11.00
2018-09-10T00:35:24.565Z,10.97
2018-09-10T00:37:54.786Z,11.47
2018-09-10T00:40:25.015Z,12.00
2018-09-10T00:42:55.231Z,10.80
2018-09-10T00:45:25.411Z,11.27
2018-09-10T00:47:55.492Z,11.50
2018-09-10T00:50:25.701Z,11.20
2018-09-10T00:52:55.941Z,10.60
2018-09-10T00:55:26.145Z,9.80
2018-09-10T00:57:56.353Z,10.00
2018-09-10T01:00:26.418Z,9.90
2018-09-10T01:02:56.574Z,10.03
2018-09-10T01:05:26.814Z,9.83
2018-09-10T01:07:56.976Z,10.20
2018-09-10T01:10:27.257Z,8.87
2018-09-10T01:12:57.417Z,9.63
2018-09-10T01:15:27.540Z,10.40
2018-09-10T01:17:57.602Z,9.73
2018-09-10T01:20:27.783Z,10.50
2018-09-10T01:22:57.971Z,10.43
2018-09-10T01:25:28.314Z,10.47
2018-09-10T01:27:58.490Z,10.70
2018-09-10T01:30:28.573Z,9.67
2018-09-10T01:32:58.638Z,10.10
2018-09-10T01:35:33.029Z,10.33
2018-09-10T01:38:03.299Z,10.20
2018-09-10T01:40:33.628Z,10.57
2018-09-10T01:43:03.932Z,10.50
2018-09-10T01:45:34.194Z,10.57
2018-09-10T01:48:04.533Z,10.67
2018-09-10T01:50:34.746Z,10.63
2018-09-10T01:53:04.900Z,11.00
2018-09-10T01:55:34.981Z,10.20
2018-09-10T01:58:05.086Z,10.67
2018-09-10T02:00:35.510Z,11.33
2018-09-10T02:03:05.781Z,10.87
2018-09-10T02:05:36.054Z,10.90
2018-09-10T02:08:06.176Z,10.80
2018-09-10T02:10:36.369Z,11.07
2018-09-10T02:13:06.469Z,10.57
2018-09-10T02:15:41.622Z,11.17
2018-09-10T02:18:11.751Z,10.73
2018-09-10T02:20:42.086Z,10.83
2018-09-10T02:23:12.377Z,11.60
2018-09-10T02:25:43.700Z,11.73
2018-09-10T02:28:15.087Z,11.83
2018-09-10T02:30:45.572Z,11.93
2018-09-10T02:33:16.538Z,12.23
2018-09-10T02:35:47.978Z,12.37
2018-09-10T02:38:19.016Z,12.73
2018-09-10T02:40:49.911Z,11.40
2018-09-10T02:43:21.363Z,11.50
2018-09-10T02:45:52.682Z,11.93
2018-09-10T02:48:24.217Z,12.30
2018-09-10T02:50:55.305Z,11.60
2018-09-10T02:53:26.465Z,12.53
2018-09-10T02:55:57.073Z,12.27
2018-09-10T02:58:29.090Z,11.80
2018-09-10T03:01:00.299Z,10.87
2018-09-10T03:03:31.547Z,11.50
2018-09-10T03:06:03.422Z,10.87
2018-09-10T03:08:34.524Z,11.50
2018-09-10T03:11:05.482Z,11.60
2018-09-10T03:13:36.885Z,11.77
2018-09-10T03:16:08.140Z,11.53
2018-09-10T03:18:39.979Z,12.17
2018-09-10T03:21:11.105Z,12.80
2018-09-10T03:23:41.606Z,12.70
2018-09-10T03:26:12.692Z,11.73
2018-09-10T03:28:43.191Z,11.47
2018-09-10T03:31:14.631Z,11.73
2018-09-10T03:33:45.420Z,12.63
2018-09-10T03:36:17.581Z,13.00
2018-09-10T03:38:48.826Z,12.73
2018-09-10T03:41:20.156Z,13.03
2018-09-10T03:43:51.285Z,13.10
2018-09-10T03:46:22.364Z,13.33
2018-09-10T03:48:53.181Z,13.10
2018-09-10T03:51:24.537Z,15.33
2018-09-10T03:53:55.674Z,12.37
2018-09-10T03:56:26.433Z,13.30
2018-09-10T03:58:57.131Z,12.90
2018-09-10T04:01:28.525Z,13.73
2018-09-10T04:04:00.519Z,14.10
2018-09-10T04:06:32.223Z,14.10
2018-09-10T04:09:04.499Z,13.57
2018-09-10T04:11:36.615Z,14.53
2018-09-10T04:14:07.058Z,14.10
2018-09-10T04:16:38.595Z,13.00
2018-09-10T04:19:10.464Z,14.53
2018-09-10T04:21:42.509Z,14.77
2018-09-10T04:24:13.696Z,14.47
2018-09-10T04:26:44.868Z,14.47
2018-09-10T04:29:16.088Z,14.07
2018-09-10T04:31:47.424Z,15.40
2018-09-10T04:34:18.299Z,14.30
2018-09-10T04:36:49.120Z,14.47
2018-09-10T04:39:20.737Z,14.87
2018-09-10T04:41:51.438Z,14.27
2018-09-10T04:44:23.038Z,14.27
2018-09-10T04:46:54.106Z,14.90
2018-09-10T04:49:25.025Z,15.43
2018-09-10T04:51:56.950Z,14.93
2018-09-10T04:54:27.539Z,14.93
2018-09-10T04:56:57.675Z,15.07
2018-09-10T04:59:27.966Z,15.63
2018-09-10T05:01:58.198Z,14.87
2018-09-10T05:04:28.506Z,15.03
2018-09-10T05:06:58.779Z,17.13
2018-09-10T05:09:29.031Z,15.27
2018-09-10T05:11:59.578Z,14.33
2018-09-10T05:14:29.804Z,13.30
2018-09-10T05:17:02.081Z,16.70
2018-09-10T05:19:33.313Z,13.10
2018-09-10T05:22:03.932Z,12.20
2018-09-10T05:24:34.046Z,12.57
2018-09-10T05:27:04.205Z,13.17
2018-09-10T05:29:34.430Z,11.80
2018-09-10T05:32:04.688Z,11.67
2018-09-10T05:34:34.847Z,11.53
2018-09-10T05:37:05.030Z,12.03
2018-09-10T05:39:35.254Z,11.50
2018-09-10T05:42:05.358Z,11.80
2018-09-10T05:44:35.435Z,11.30
2018-09-10T05:47:06.375Z,11.80
2018-09-10T05:49:36.527Z,12.90
2018-09-10T05:52:06.802Z,11.70
2018-09-10T05:54:37.257Z,11.07
2018-09-10T05:57:07.418Z,11.67
2018-09-10T05:59:37.624Z,10.97
2018-09-10T06:02:07.899Z,11.43
2018-09-10T06:04:38.152Z,11.10
2018-09-10T06:07:08.256Z,12.50
2018-09-10T06:09:38.404Z,11.23
2018-09-10T06:12:08.773Z,11.27
2018-09-10T06:14:38.840Z,10.63
2018-09-10T06:17:09.232Z,10.83
2018-09-10T06:19:39.384Z,11.20
2018-09-10T06:22:09.557Z,12.13
2018-09-10T06:24:39.640Z,12.23
2018-09-10T06:27:09.981Z,11.67
2018-09-10T06:29:40.251Z,11.67
2018-09-10T06:32:10.370Z,11.50
2018-09-10T06:34:40.536Z,10.20
2018-09-10T06:37:10.764Z,10.87
2018-09-10T06:39:41.025Z,10.53
2018-09-10T06:42:11.258Z,11.73
2018-09-10T06:44:41.634Z,9.60
2018-09-10T06:47:11.986Z,10.43
2018-09-10T06:49:41.971Z,10.37
2018-09-10T06:52:12.028Z,10.73
2018-09-10T06:54:42.269Z,9.80
2018-09-10T06:57:12.746Z,9.53
2018-09-10T06:59:43.042Z,10.37
2018-09-10T07:02:13.396Z,9.57
2018-09-10T07:04:43.695Z,9.70
2018-09-10T07:07:13.915Z,8.90
2018-09-10T07:09:44.204Z,9.57
2018-09-10T07:12:14.427Z,9.63
2018-09-10T07:14:44.616Z,10.03
2018-09-10T07:17:14.948Z,8.60
2018-09-10T07:19:45.096Z,8.87
2018-09-10T07:22:15.326Z,9.37
2018-09-10T07:24:45.293Z,9.80
2018-09-10T07:27:15.605Z,9.53
2018-09-10T07:29:45.767Z,9.77
2018-09-10T07:32:15.988Z,9.20
2018-09-10T07:34:46.123Z,9.33
2018-09-10T07:37:16.293Z,9.97
2018-09-10T07:39:46.635Z,9.70
2018-09-10T07:42:16.780Z,9.77
2018-09-10T07:44:47.192Z,9.57
2018-09-10T07:47:17.604Z,8.80
2018-09-10T07:49:47.891Z,9.20
2018-09-10T07:52:18.308Z,9.30
2018-09-10T07:54:48.369Z,8.60
2018-09-10T07:57:18.571Z,8.57
2018-09-10T07:59:48.991Z,9.00
2018-09-10T08:02:19.309Z,8.17
2018-09-10T08:04:49.547Z,8.73
2018-09-10T08:07:19.813Z,9.03
2018-09-10T08:09:49.912Z,8.93
2018-09-10T08:12:20.103Z,8.17
2018-09-10T08:14:50.199Z,8.10
2018-09-10T08:17:20.893Z,8.33
2018-09-10T08:19:51.083Z,8.03
2018-09-10T08:22:21.292Z,8.17
2018-09-10T08:24:51.515Z,8.00
2018-09-10T08:27:21.621Z,7.77
2018-09-10T08:29:51.527Z,7.93
2018-09-10T08:32:21.704Z,8.37
2018-09-10T08:34:51.922Z,7.37
2018-09-10T08:37:22.209Z,7.97
2018-09-10T08:39:52.330Z,7.63
2018-09-10T08:42:22.506Z,7.33
2018-09-10T08:44:52.740Z,6.70
2018-09-10T08:47:22.973Z,7.77
2018-09-10T08:49:54.291Z,7.60
2018-09-10T08:52:25.519Z,7.70
2018-09-10T08:54:56.778Z,8.10
2018-09-10T08:57:27.901Z,7.53
2018-09-10T08:59:59.835Z,8.37
2018-09-10T09:02:31.476Z,6.97
2018-09-10T09:05:02.561Z,6.60
2018-09-10T09:07:34.562Z,7.13
2018-09-10T09:10:04.785Z,7.27
2018-09-10T09:12:34.893Z,7.33
2018-09-10T09:15:05.369Z,7.43
2018-09-10T09:17:35.535Z,8.03
2018-09-10T09:20:06.110Z,7.30
2018-09-10T09:22:36.284Z,8.67
2018-09-10T09:25:06.648Z,8.07
2018-09-10T09:27:38.013Z,10.67
2018-09-10T09:30:09.728Z,8.30
2018-09-10T09:32:41.099Z,11.20
2018-09-10T09:35:12.214Z,8.17
2018-09-10T09:37:48.865Z,7.40
2018-09-10T09:40:25.160Z,7.87
2018-09-10T09:43:01.486Z,18.30
2018-09-10T09:45:38.266Z,7.23
2018-09-10T09:48:08.730Z,7.70
2018-09-10T09:50:39.954Z,7.23
2018-09-10T09:53:11.029Z,7.40
2018-09-10T09:55:42.168Z,7.00
2018-09-10T09:58:13.735Z,6.47
2018-09-10T10:00:54.578Z,7.37
2018-09-10T10:03:31.270Z,7.17
2018-09-10T10:06:02.741Z,6.83
2018-09-10T10:08:34.099Z,6.23
2018-09-10T10:11:05.353Z,6.50
2018-09-10T10:13:36.601Z,5.90
2018-09-10T10:16:07.997Z,6.80
2018-09-10T10:18:39.545Z,6.63
2018-09-10T10:21:10.820Z,7.10
2018-09-10T10:23:41.828Z,7.27
2018-09-10T10:26:13.429Z,7.03
2018-09-10T10:28:44.839Z,6.80
2018-09-10T10:31:16.022Z,7.07
2018-09-10T10:33:46.850Z,7.83
2018-09-10T10:36:18.148Z,8.47
2018-09-10T10:38:49.371Z,7.10
2018-09-10T10:41:20.277Z,6.70
2018-09-10T10:43:51.829Z,7.67
2018-09-10T10:46:22.963Z,6.20
2018-09-10T10:48:54.466Z,6.10
2018-09-10T10:51:26.221Z,5.70
2018-09-10T10:53:57.901Z,5.43
2018-09-10T10:56:28.841Z,5.50
2018-09-10T10:59:00.231Z,5.13
2018-09-10T11:01:31.355Z,5.90
2018-09-10T11:04:02.516Z,5.20
2018-09-10T11:06:37.192Z,5.60
2018-09-10T11:09:09.417Z,4.83
2018-09-10T11:11:40.544Z,5.40
2018-09-10T11:14:11.332Z,6.10
2018-09-10T11:16:42.199Z,5.60
2018-09-10T11:19:13.440Z,5.23
2018-09-10T11:21:44.701Z,4.47
2018-09-10T11:24:15.666Z,5.13
2018-09-10T11:26:46.610Z,5.53
2018-09-10T11:29:17.837Z,5.07
2018-09-10T11:31:49.796Z,4.67
2018-09-10T11:34:21.757Z,5.30
2018-09-10T11:36:53.380Z,5.60
2018-09-10T11:39:25.653Z,4.97
2018-09-10T11:41:57.576Z,5.20
2018-09-10T11:44:28.889Z,4.80
2018-09-10T11:47:00.039Z,5.03
2018-09-10T11:49:31.095Z,4.93
2018-09-10T11:52:02.163Z,5.23
2018-09-10T11:54:33.712Z,5.23
2018-09-10T11:57:04.958Z,5.23
2018-09-10T11:59:36.114Z,4.40
2018-09-10T12:02:07.873Z,4.30
2018-09-10T12:04:38.956Z,4.33
2018-09-10T12:07:11.006Z,3.60
2018-09-10T12:09:41.463Z,4.20
2018-09-10T12:12:12.428Z,4.03
2018-09-10T12:14:44.732Z,3.93
2018-09-10T12:17:16.217Z,4.17
2018-09-10T12:19:46.944Z,3.93
2018-09-10T12:22:18.447Z,4.00
2018-09-10T12:24:49.675Z,4.60
2018-09-10T12:27:20.631Z,4.87
2018-09-10T12:29:52.401Z,4.83
2018-09-10T12:32:24.250Z,4.83
2018-09-10T12:34:55.139Z,5.03
2018-09-10T12:37:25.994Z,4.57
2018-09-10T12:39:57.860Z,4.20
2018-09-10T12:42:29.410Z,4.57
2018-09-10T12:45:00.346Z,5.20
2018-09-10T12:47:31.500Z,4.70
2018-09-10T12:50:02.873Z,5.03
2018-09-10T12:52:33.901Z,4.97
2018-09-10T12:55:05.230Z,5.03
2018-09-10T12:57:36.575Z,6.07
2018-09-10T13:00:07.603Z,4.77
2018-09-10T13:02:38.356Z,5.03
2018-09-10T13:05:09.181Z,5.00
2018-09-10T13:07:40.410Z,4.53
2018-09-10T13:10:12.410Z,4.47
2018-09-10T13:12:43.650Z,4.60
2018-09-10T13:15:16.447Z,4.90
2018-09-10T13:17:47.973Z,4.60
2018-09-10T13:20:19.247Z,4.57
2018-09-10T13:22:50.524Z,4.80
2018-09-10T13:25:22.142Z,4.70
2018-09-10T13:27:53.386Z,4.27
2018-09-10T13:30:25.110Z,5.40
2018-09-10T13:32:56.371Z,4.70
2018-09-10T13:35:27.585Z,4.90
2018-09-10T13:37:59.623Z,4.40
2018-09-10T13:40:30.713Z,4.80
2018-09-10T13:43:02.468Z,5.50
2018-09-10T13:45:33.548Z,4.67
2018-09-10T13:48:04.887Z,4.90
2018-09-10T13:50:35.828Z,4.60
2018-09-10T13:53:06.869Z,5.13
2018-09-10T13:55:38.267Z,5.30
2018-09-10T13:58:09.360Z,5.63
2018-09-10T14:00:40.364Z,5.50
2018-09-10T14:03:11.835Z,5.90
2018-09-10T14:05:42.948Z,5.60
2018-09-10T14:08:14.352Z,5.80
2018-09-10T14:10:45.566Z,5.57
2018-09-10T14:13:16.755Z,5.43
2018-09-10T14:15:47.301Z,5.57
2018-09-10T14:18:18.292Z,5.90
2018-09-10T14:20:49.908Z,6.37
2018-09-10T14:23:21.394Z,5.67
2018-09-10T14:25:53.103Z,5.83
2018-09-10T14:31:29.961Z,5.83
2018-09-10T14:34:01.548Z,5.30
2018-09-10T14:36:32.838Z,5.27
2018-09-10T14:39:06.103Z,5.00
2018-09-10T14:41:37.222Z,5.90
2018-09-10T14:44:07.598Z,5.67
2018-09-10T14:46:38.973Z,5.63
2018-09-10T14:49:10.044Z,5.83
2018-09-10T14:51:40.594Z,5.80
2018-09-10T14:54:11.776Z,5.17
2018-09-10T14:56:42.979Z,5.60
2018-09-10T14:59:14.105Z,5.80
2018-09-10T15:01:45.504Z,5.30
2018-09-10T15:04:16.892Z,5.67
2018-09-10T15:06:47.659Z,5.40
2018-09-10T15:09:19.166Z,6.03
2018-09-10T15:11:50.380Z,5.60
2018-09-10T15:14:21.852Z,5.90
2018-09-10T15:16:52.973Z,6.37
2018-09-10T15:19:23.730Z,6.00
2018-09-10T15:21:55.144Z,6.00
2018-09-10T15:24:26.374Z,5.67
2018-09-10T15:26:57.582Z,6.33
2018-09-10T15:29:28.993Z,5.83
2018-09-10T15:32:00.136Z,5.90
2018-09-10T15:34:31.183Z,5.73
2018-09-10T15:37:02.713Z,5.77
2018-09-10T15:39:34.066Z,6.30
2018-09-10T15:42:05.291Z,6.73
2018-09-10T15:44:36.526Z,6.20
2018-09-10T15:47:06.850Z,6.33
2018-09-10T15:49:37.688Z,6.73
2018-09-10T15:52:09.023Z,7.13
2018-09-10T15:54:40.394Z,6.23
2018-09-10T15:57:11.349Z,6.90
2018-09-10T15:59:43.193Z,6.90
2018-09-10T16:02:14.498Z,6.43
2018-09-10T16:04:45.805Z,6.43
2018-09-10T16:07:17.123Z,7.00
2018-09-10T16:09:48.284Z,6.97
2018-09-10T16:12:19.701Z,7.37
2018-09-10T16:14:51.022Z,7.73
2018-09-10T16:17:22.563Z,6.83
2018-09-10T16:19:54.365Z,6.67
2018-09-10T16:22:25.808Z,11.87
2018-09-10T16:24:57.298Z,6.77
2018-09-10T16:27:28.808Z,6.83
2018-09-10T16:30:00.504Z,7.23
2018-09-10T16:32:31.264Z,7.40
2018-09-10T16:35:01.736Z,7.70
2018-09-10T16:37:32.961Z,7.80
2018-09-10T16:40:04.811Z,7.40
2018-09-10T16:42:35.562Z,7.70
2018-09-10T16:45:06.578Z,6.80
2018-09-10T16:47:38.452Z,7.00
2018-09-10T16:50:09.715Z,7.97
2018-09-10T16:52:41.330Z,7.53
2018-09-10T16:55:13.163Z,6.70
2018-09-10T16:57:44.877Z,7.60
2018-09-10T17:00:16.966Z,7.97
2018-09-10T17:02:48.619Z,7.17
2018-09-10T17:05:18.913Z,7.20
2018-09-10T17:07:50.367Z,7.60
2018-09-10T17:10:21.826Z,7.33
2018-09-10T17:12:53.308Z,7.00
2018-09-10T17:15:24.721Z,7.43
2018-09-10T17:17:55.998Z,7.43
2018-09-10T17:20:27.321Z,7.90
2018-09-10T17:22:59.458Z,8.50
2018-09-10T17:25:31.327Z,7.57
2018-09-10T17:28:03.129Z,7.20
2018-09-10T17:30:35.199Z,8.03
2018-09-10T17:33:06.834Z,7.83
2018-09-10T17:35:38.653Z,7.47
2018-09-10T17:38:10.771Z,7.90
2018-09-10T17:40:42.931Z,8.20
2018-09-10T17:43:14.689Z,8.47
2018-09-10T17:45:45.546Z,7.60
2018-09-10T17:48:16.787Z,8.33
2018-09-10T17:50:48.558Z,7.17
2018-09-10T17:53:21.932Z,7.70
2018-09-10T17:55:53.811Z,7.63
2018-09-10T17:58:25.349Z,8.20
2018-09-10T18:00:57.707Z,7.80
2018-09-10T18:03:29.558Z,8.00
2018-09-10T18:06:01.318Z,7.73
2018-09-10T18:08:33.338Z,7.93
2018-09-10T18:11:05.273Z,8.07
2018-09-10T18:13:37.367Z,8.13
2018-09-10T18:16:09.321Z,8.00
2018-09-10T18:18:41.110Z,8.57
2018-09-10T18:21:14.171Z,8.30
2018-09-10T18:23:45.907Z,8.50
2018-09-10T18:26:17.302Z,8.37
2018-09-10T18:28:48.854Z,8.50
2018-09-10T18:31:20.954Z,8.47
2018-09-10T18:33:53.066Z,8.53
2018-09-10T18:36:24.758Z,8.27
2018-09-10T18:38:56.406Z,8.10
2018-09-10T18:41:28.579Z,8.27
2018-09-10T18:44:00.583Z,8.20
2018-09-10T18:46:32.351Z,8.80
2018-09-10T18:49:04.142Z,8.37
2018-09-10T18:51:36.249Z,8.33
2018-09-10T18:54:08.040Z,8.20
2018-09-10T18:56:39.788Z,8.90
2018-09-10T18:59:11.095Z,8.50
2018-09-10T19:01:43.001Z,9.03
2018-09-10T19:04:14.973Z,8.77
2018-09-10T19:06:46.500Z,8.90
2018-09-10T19:09:18.746Z,9.07
2018-09-10T19:11:50.768Z,8.67
2018-09-10T19:14:22.404Z,8.40
2018-09-10T19:16:54.461Z,8.90
2018-09-10T19:19:26.048Z,8.77
2018-09-10T19:21:57.824Z,8.40
2018-09-10T19:24:29.568Z,8.80
2018-09-10T19:27:01.045Z,9.53
2018-09-10T19:29:33.947Z,9.93
2018-09-10T19:32:05.391Z,10.17
2018-09-10T19:34:37.003Z,9.20
2018-09-10T19:37:08.594Z,9.27
2018-09-10T19:39:40.520Z,9.03
2018-09-10T19:42:12.326Z,8.97
2018-09-10T19:44:44.044Z,9.27
2018-09-10T19:47:15.471Z,9.43
2018-09-10T19:49:47.192Z,9.73
2018-09-10T19:52:18.565Z,9.43
2018-09-10T19:54:49.878Z,9.00
2018-09-10T19:57:21.534Z,9.30
2018-09-10T19:59:53.222Z,9.83
2018-09-10T20:02:24.958Z,9.80
2018-09-10T20:04:56.317Z,10.50
2018-09-10T20:07:27.270Z,9.53
2018-09-10T20:09:58.960Z,10.57
2018-09-10T20:12:30.732Z,10.40
2018-09-10T20:15:02.075Z,9.90
2018-09-10T20:17:33.635Z,10.20
2018-09-10T20:20:06.245Z,10.00
2018-09-10T20:22:38.437Z,9.20
2018-09-10T20:27:59.482Z,11.20
2018-09-10T20:30:30.399Z,11.03
2018-09-10T20:33:01.720Z,10.73
2018-09-10T20:35:32.622Z,11.77
2018-09-10T20:38:04.000Z,11.57
2018-09-10T20:40:35.365Z,11.37
2018-09-10T20:43:06.585Z,11.33
2018-09-10T20:45:37.618Z,11.33
2018-09-10T20:48:09.139Z,10.67
2018-09-10T20:50:40.893Z,11.47
2018-09-10T20:53:12.788Z,11.13
2018-09-10T20:55:44.638Z,10.20
2018-09-10T20:58:16.604Z,11.40
2018-09-10T21:00:50.212Z,11.50
2018-09-10T21:03:22.284Z,11.30
2018-09-10T21:05:57.015Z,11.37
2018-09-10T21:08:29.434Z,11.13
2018-09-10T21:11:01.319Z,11.47
2018-09-10T21:13:33.659Z,11.37
2018-09-10T21:16:05.728Z,11.50
2018-09-10T21:18:38.074Z,10.20
2018-09-10T21:21:10.244Z,11.57
2018-09-10T21:23:41.407Z,11.77
2018-09-10T21:26:13.074Z,10.97
2018-09-10T21:28:44.137Z,11.80
2018-09-10T21:31:15.891Z,10.63
2018-09-10T21:33:47.480Z,10.93
2018-09-10T21:36:19.134Z,10.97
2018-09-10T21:38:50.404Z,10.47
2018-09-10T21:41:21.838Z,11.40
2018-09-10T21:43:53.394Z,12.00
2018-09-10T21:46:25.111Z,12.13
2018-09-10T21:48:56.392Z,11.60
2018-09-10T21:51:27.189Z,11.17
2018-09-10T21:53:58.612Z,11.63
2018-09-10T21:56:30.541Z,11.90
2018-09-10T21:59:01.700Z,11.73
2018-09-10T22:01:33.001Z,11.93
2018-09-10T22:04:04.565Z,12.60
2018-09-10T22:06:36.800Z,11.87
2018-09-10T22:09:09.145Z,11.37
2018-09-10T22:11:46.055Z,11.27
2018-09-10T22:14:17.527Z,10.77
2018-09-10T22:16:49.221Z,11.50
2018-09-10T22:19:20.636Z,11.80
2018-09-10T22:21:52.268Z,11.87
2018-09-10T22:24:23.935Z,10.70
2018-09-10T22:26:55.551Z,11.30
2018-09-10T22:29:26.318Z,11.40
2018-09-10T22:31:57.557Z,11.60
2018-09-10T22:34:28.504Z,12.60
2018-09-10T22:37:00.553Z,12.43
2018-09-10T22:39:31.325Z,12.27
2018-09-10T22:42:03.504Z,11.30
2018-09-10T22:44:34.712Z,11.77
2018-09-10T22:47:05.372Z,11.33
2018-09-10T22:49:36.655Z,10.97
2018-09-10T22:52:08.066Z,12.30
2018-09-10T22:54:39.235Z,12.20
2018-09-10T22:57:10.365Z,12.70
2018-09-10T22:59:41.540Z,12.73
2018-09-10T23:02:12.660Z,12.30
2018-09-10T23:04:44.399Z,12.03
2018-09-10T23:07:16.199Z,12.53
2018-09-10T23:09:47.264Z,12.17
2018-09-10T23:12:17.884Z,11.37
2018-09-10T23:14:49.698Z,11.30
2018-09-10T23:17:21.179Z,11.47
2018-09-10T23:19:52.859Z,11.53
2018-09-10T23:22:24.323Z,11.97
2018-09-10T23:24:55.598Z,11.40
2018-09-10T23:27:26.657Z,11.83
2018-09-10T23:29:58.497Z,11.90
2018-09-10T23:32:29.510Z,11.33
2018-09-10T23:35:00.809Z,11.43
2018-09-10T23:37:32.219Z,11.40
2018-09-10T23:40:03.463Z,11.50
2018-09-10T23:42:35.209Z,12.07
2018-09-10T23:45:06.424Z,12.40
2018-09-10T23:47:37.898Z,11.90
2018-09-10T23:50:08.728Z,12.00
2018-09-10T23:52:40.117Z,12.30
2018-09-10T23:55:11.097Z,12.97
2018-09-10T23:57:42.319Z,12.67
